EKSN/CNL METAR and TAF weather

Enter ICAO airport designator
Station Type Date Time Source
EKSN METAR 2020/09/18 12:50 UTC NOAA

EKSN 181250Z 26017KT 9999 SCT015 15/12 Q1027


Station Type Date Time Source
EKSN Decoded METAR 2020/09/18 12:50 UTC NOAA

Sindal Flyveplads, Denmark (EKSN) 57-30N 010-13E 28M
Sep 18, 2020 - 08:50 AM EDT / 2020.09.18 1250 UTC
Wind: from the W (260 degrees) at 20 MPH (17 KT):0
Visibility: greater than 7 mile(s):0
Sky conditions: partly cloudy
Temperature: 59 F (15 C)
Dew Point: 53 F (12 C)
Relative Humidity: 82%
Pressure (altimeter): 30.33 in. Hg (1027 hPa)
ob: EKSN 181250Z 26017KT 9999 SCT015 15/12 Q1027
cycle: 13

Station Type Date Time Source
EKSN TAF UTC NOAA

Error!

Example: see airport list